sensor_id;sensor_type;location;lat;lon;timestamp;P1;durP1;ratioP1;P2;durP2;ratioP2
3811;SDS011;1921;49.368;11.068;2022-11-11T00:01:00;48.23;;;44.03;;
3811;SDS011;1921;49.368;11.068;2022-11-11T00:03:29;48.13;;;43.93;;
3811;SDS011;1921;49.368;11.068;2022-11-11T00:05:59;50.37;;;45.67;;
3811;SDS011;1921;49.368;11.068;2022-11-11T00:08:30;47.80;;;43.80;;
3811;SDS011;1921;49.368;11.068;2022-11-11T00:11:00;47.93;;;44.03;;
3811;SDS011;1921;49.368;11.068;2022-11-11T00:13:31;48.03;;;43.73;;
3811;SDS011;1921;49.368;11.068;2022-11-11T00:18:35;49.20;;;44.77;;
3811;SDS011;1921;49.368;11.068;2022-11-11T00:21:21;46.37;;;42.57;;
3811;SDS011;1921;49.368;11.068;2022-11-11T00:24:19;46.93;;;43.03;;
3811;SDS011;1921;49.368;11.068;2022-11-11T00:27:09;47.13;;;43.30;;
3811;SDS011;1921;49.368;11.068;2022-11-11T00:29:36;48.97;;;44.63;;
3811;SDS011;1921;49.368;11.068;2022-11-11T00:32:03;47.77;;;43.77;;
3811;SDS011;1921;49.368;11.068;2022-11-11T00:34:48;48.40;;;43.70;;
3811;SDS011;1921;49.368;11.068;2022-11-11T00:37:34;47.40;;;43.40;;
3811;SDS011;1921;49.368;11.068;2022-11-11T00:40:00;47.93;;;43.83;;
3811;SDS011;1921;49.368;11.068;2022-11-11T00:42:26;48.80;;;44.40;;
3811;SDS011;1921;49.368;11.068;2022-11-11T00:44:52;48.17;;;43.83;;
3811;SDS011;1921;49.368;11.068;2022-11-11T00:47:19;48.30;;;43.77;;
3811;SDS011;1921;49.368;11.068;2022-11-11T00:50:03;47.63;;;43.77;;
3811;SDS011;1921;49.368;11.068;2022-11-11T00:52:56;48.50;;;44.40;;
3811;SDS011;1921;49.368;11.068;2022-11-11T00:55:22;48.87;;;44.10;;
3811;SDS011;1921;49.368;11.068;2022-11-11T00:57:48;48.30;;;43.60;;
3811;SDS011;1921;49.368;11.068;2022-11-11T01:00:14;47.30;;;43.43;;
3811;SDS011;1921;49.368;11.068;2022-11-11T01:02:40;51.93;;;45.60;;
3811;SDS011;1921;49.368;11.068;2022-11-11T01:05:05;47.63;;;43.73;;
3811;SDS011;1921;49.368;11.068;2022-11-11T01:07:31;47.50;;;43.20;;
3811;SDS011;1921;49.368;11.068;2022-11-11T01:09:57;48.63;;;44.53;;
3811;SDS011;1921;49.368;11.068;2022-11-11T01:12:23;48.10;;;44.10;;
3811;SDS011;1921;49.368;11.068;2022-11-11T01:14:49;47.00;;;43.00;;
3811;SDS011;1921;49.368;11.068;2022-11-11T01:17:14;46.60;;;42.80;;
3811;SDS011;1921;49.368;11.068;2022-11-11T01:19:40;47.83;;;43.73;;
3811;SDS011;1921;49.368;11.068;2022-11-11T01:22:06;49.67;;;44.67;;
3811;SDS011;1921;49.368;11.068;2022-11-11T01:24:32;46.13;;;42.43;;
3811;SDS011;1921;49.368;11.068;2022-11-11T01:26:57;47.83;;;43.47;;
3811;SDS011;1921;49.368;11.068;2022-11-11T01:29:23;47.00;;;42.90;;
3811;SDS011;1921;49.368;11.068;2022-11-11T01:31:49;46.50;;;42.80;;
3811;SDS011;1921;49.368;11.068;2022-11-11T01:34:14;46.60;;;42.80;;
3811;SDS011;1921;49.368;11.068;2022-11-11T01:36:40;47.10;;;43.17;;
3811;SDS011;1921;49.368;11.068;2022-11-11T01:39:06;46.47;;;42.77;;
3811;SDS011;1921;49.368;11.068;2022-11-11T01:41:33;48.13;;;44.00;;
3811;SDS011;1921;49.368;11.068;2022-11-11T01:52:12;46.43;;;42.83;;
3811;SDS011;1921;49.368;11.068;2022-11-11T01:57:21;47.13;;;43.30;;
3811;SDS011;1921;49.368;11.068;2022-11-11T02:00:24;47.10;;;43.30;;
3811;SDS011;1921;49.368;11.068;2022-11-11T02:05:19;48.37;;;44.03;;
3811;SDS011;1921;49.368;11.068;2022-11-11T02:08:07;47.20;;;43.23;;
3811;SDS011;1921;49.368;11.068;2022-11-11T02:10:39;47.23;;;43.50;;
3811;SDS011;1921;49.368;11.068;2022-11-11T02:13:13;46.73;;;42.83;;
3811;SDS011;1921;49.368;11.068;2022-11-11T02:15:59;48.77;;;44.47;;
3811;SDS011;1921;49.368;11.068;2022-11-11T02:18:25;48.03;;;43.83;;
3811;SDS011;1921;49.368;11.068;2022-11-11T02:20:51;46.37;;;42.73;;
3811;SDS011;1921;49.368;11.068;2022-11-11T02:23:21;47.80;;;43.00;;
3811;SDS011;1921;49.368;11.068;2022-11-11T02:26:02;45.70;;;42.20;;
3811;SDS011;1921;49.368;11.068;2022-11-11T02:28:30;47.37;;;43.13;;
3811;SDS011;1921;49.368;11.068;2022-11-11T02:30:57;47.07;;;43.37;;
3811;SDS011;1921;49.368;11.068;2022-11-11T02:33:23;47.90;;;44.03;;
3811;SDS011;1921;49.368;11.068;2022-11-11T02:35:50;46.77;;;42.90;;
3811;SDS011;1921;49.368;11.068;2022-11-11T02:38:20;45.13;;;41.73;;
3811;SDS011;1921;49.368;11.068;2022-11-11T02:40:46;47.37;;;43.47;;
3811;SDS011;1921;49.368;11.068;2022-11-11T02:43:31;45.60;;;42.10;;
3811;SDS011;1921;49.368;11.068;2022-11-11T02:45:58;48.40;;;44.30;;
3811;SDS011;1921;49.368;11.068;2022-11-11T02:48:25;47.33;;;42.90;;
3811;SDS011;1921;49.368;11.068;2022-11-11T02:50:52;47.20;;;43.30;;
3811;SDS011;1921;49.368;11.068;2022-11-11T02:53:18;45.80;;;42.33;;
3811;SDS011;1921;49.368;11.068;2022-11-11T02:55:44;45.83;;;42.10;;
3811;SDS011;1921;49.368;11.068;2022-11-11T02:58:10;47.63;;;43.90;;
3811;SDS011;1921;49.368;11.068;2022-11-11T03:00:37;45.23;;;41.70;;
3811;SDS011;1921;49.368;11.068;2022-11-11T03:03:02;46.30;;;42.53;;
3811;SDS011;1921;49.368;11.068;2022-11-11T03:05:28;45.80;;;42.20;;
3811;SDS011;1921;49.368;11.068;2022-11-11T03:07:54;45.43;;;41.90;;
3811;SDS011;1921;49.368;11.068;2022-11-11T03:10:20;46.50;;;42.83;;
3811;SDS011;1921;49.368;11.068;2022-11-11T03:12:47;47.20;;;43.60;;
3811;SDS011;1921;49.368;11.068;2022-11-11T03:15:13;45.60;;;42.00;;
3811;SDS011;1921;49.368;11.068;2022-11-11T03:17:38;46.13;;;42.30;;
3811;SDS011;1921;49.368;11.068;2022-11-11T03:20:22;46.50;;;42.30;;
3811;SDS011;1921;49.368;11.068;2022-11-11T03:23:11;46.03;;;42.53;;
3811;SDS011;1921;49.368;11.068;2022-11-11T03:25:44;46.43;;;42.53;;
3811;SDS011;1921;49.368;11.068;2022-11-11T03:28:19;46.00;;;42.50;;
3811;SDS011;1921;49.368;11.068;2022-11-11T03:30:46;46.37;;;42.80;;
3811;SDS011;1921;49.368;11.068;2022-11-11T03:33:14;47.87;;;43.73;;
3811;SDS011;1921;49.368;11.068;2022-11-11T03:35:42;46.97;;;43.33;;
3811;SDS011;1921;49.368;11.068;2022-11-11T03:38:11;45.00;;;41.70;;
3811;SDS011;1921;49.368;11.068;2022-11-11T03:40:44;46.33;;;42.37;;
3811;SDS011;1921;49.368;11.068;2022-11-11T03:43:11;47.70;;;44.00;;
3811;SDS011;1921;49.368;11.068;2022-11-11T03:45:42;46.70;;;42.80;;
3811;SDS011;1921;49.368;11.068;2022-11-11T03:48:08;46.40;;;42.67;;
3811;SDS011;1921;49.368;11.068;2022-11-11T03:50:35;46.00;;;42.30;;
3811;SDS011;1921;49.368;11.068;2022-11-11T03:53:01;46.33;;;42.53;;
3811;SDS011;1921;49.368;11.068;2022-11-11T03:55:27;46.33;;;42.60;;
3811;SDS011;1921;49.368;11.068;2022-11-11T03:57:53;46.43;;;42.40;;
3811;SDS011;1921;49.368;11.068;2022-11-11T04:00:20;46.67;;;43.07;;
3811;SDS011;1921;49.368;11.068;2022-11-11T04:02:49;47.60;;;43.70;;
3811;SDS011;1921;49.368;11.068;2022-11-11T04:05:34;47.50;;;43.60;;
3811;SDS011;1921;49.368;11.068;2022-11-11T04:08:19;44.77;;;41.20;;
3811;SDS011;1921;49.368;11.068;2022-11-11T04:11:06;45.03;;;41.73;;
3811;SDS011;1921;49.368;11.068;2022-11-11T04:13:45;48.63;;;44.73;;
3811;SDS011;1921;49.368;11.068;2022-11-11T04:16:31;46.50;;;42.60;;
3811;SDS011;1921;49.368;11.068;2022-11-11T04:18:57;47.87;;;43.83;;
3811;SDS011;1921;49.368;11.068;2022-11-11T04:21:41;45.60;;;42.10;;
3811;SDS011;1921;49.368;11.068;2022-11-11T04:24:07;46.87;;;42.77;;
3811;SDS011;1921;49.368;11.068;2022-11-11T04:26:54;45.80;;;42.40;;
3811;SDS011;1921;49.368;11.068;2022-11-11T04:29:21;46.63;;;43.10;;
3811;SDS011;1921;49.368;11.068;2022-11-11T04:31:55;46.07;;;42.60;;
3811;SDS011;1921;49.368;11.068;2022-11-11T04:35:01;48.63;;;42.30;;
3811;SDS011;1921;49.368;11.068;2022-11-11T04:37:32;52.90;;;45.60;;
3811;SDS011;1921;49.368;11.068;2022-11-11T04:40:10;47.87;;;43.53;;
3811;SDS011;1921;49.368;11.068;2022-11-11T04:42:55;45.53;;;41.83;;
3811;SDS011;1921;49.368;11.068;2022-11-11T04:45:20;47.90;;;43.87;;
3811;SDS011;1921;49.368;11.068;2022-11-11T04:50:26;45.53;;;41.73;;
3811;SDS011;1921;49.368;11.068;2022-11-11T04:52:55;44.63;;;41.37;;
3811;SDS011;1921;49.368;11.068;2022-11-11T04:55:21;46.83;;;43.00;;
3811;SDS011;1921;49.368;11.068;2022-11-11T04:58:06;47.60;;;43.57;;
3811;SDS011;1921;49.368;11.068;2022-11-11T05:00:32;46.47;;;42.67;;
3811;SDS011;1921;49.368;11.068;2022-11-11T05:02:58;46.37;;;42.77;;
3811;SDS011;1921;49.368;11.068;2022-11-11T05:05:50;45.00;;;41.60;;
3811;SDS011;1921;49.368;11.068;2022-11-11T05:08:42;45.00;;;41.50;;
3811;SDS011;1921;49.368;11.068;2022-11-11T05:11:32;45.83;;;42.23;;
3811;SDS011;1921;49.368;11.068;2022-11-11T05:14:01;46.33;;;42.83;;
3811;SDS011;1921;49.368;11.068;2022-11-11T05:16:51;44.87;;;41.47;;
3811;SDS011;1921;49.368;11.068;2022-11-11T05:19:40;46.50;;;42.80;;
3811;SDS011;1921;49.368;11.068;2022-11-11T05:22:29;48.33;;;43.87;;
3811;SDS011;1921;49.368;11.068;2022-11-11T05:25:02;45.93;;;42.40;;
3811;SDS011;1921;49.368;11.068;2022-11-11T05:27:47;46.97;;;43.10;;
3811;SDS011;1921;49.368;11.068;2022-11-11T05:30:13;46.10;;;42.50;;
3811;SDS011;1921;49.368;11.068;2022-11-11T05:32:40;47.13;;;43.30;;
3811;SDS011;1921;49.368;11.068;2022-11-11T05:35:07;47.00;;;43.40;;
3811;SDS011;1921;49.368;11.068;2022-11-11T05:37:34;44.60;;;41.23;;
3811;SDS011;1921;49.368;11.068;2022-11-11T05:40:00;44.63;;;41.43;;
3811;SDS011;1921;49.368;11.068;2022-11-11T05:42:26;44.10;;;41.00;;
3811;SDS011;1921;49.368;11.068;2022-11-11T05:44:52;44.27;;;40.83;;
3811;SDS011;1921;49.368;11.068;2022-11-11T05:47:17;46.50;;;42.67;;
3811;SDS011;1921;49.368;11.068;2022-11-11T05:49:43;45.13;;;41.43;;
3811;SDS011;1921;49.368;11.068;2022-11-11T05:52:10;46.40;;;42.60;;
3811;SDS011;1921;49.368;11.068;2022-11-11T05:54:37;44.30;;;41.03;;
3811;SDS011;1921;49.368;11.068;2022-11-11T05:57:03;46.20;;;42.60;;
3811;SDS011;1921;49.368;11.068;2022-11-11T05:59:29;46.33;;;42.43;;
3811;SDS011;1921;49.368;11.068;2022-11-11T06:01:54;45.70;;;42.00;;
3811;SDS011;1921;49.368;11.068;2022-11-11T06:04:20;43.73;;;40.53;;
3811;SDS011;1921;49.368;11.068;2022-11-11T06:06:46;42.77;;;39.87;;
3811;SDS011;1921;49.368;11.068;2022-11-11T06:09:12;46.53;;;42.33;;
3811;SDS011;1921;49.368;11.068;2022-11-11T06:11:38;45.13;;;41.63;;
3811;SDS011;1921;49.368;11.068;2022-11-11T06:14:04;45.23;;;41.20;;
3811;SDS011;1921;49.368;11.068;2022-11-11T06:16:30;46.80;;;42.87;;
3811;SDS011;1921;49.368;11.068;2022-11-11T06:18:55;48.20;;;44.10;;
3811;SDS011;1921;49.368;11.068;2022-11-11T06:21:21;46.53;;;42.67;;
3811;SDS011;1921;49.368;11.068;2022-11-11T06:23:47;44.93;;;41.57;;
3811;SDS011;1921;49.368;11.068;2022-11-11T06:26:13;46.63;;;42.80;;
3811;SDS011;1921;49.368;11.068;2022-11-11T06:28:43;45.70;;;42.23;;
3811;SDS011;1921;49.368;11.068;2022-11-11T06:31:21;45.80;;;42.40;;
3811;SDS011;1921;49.368;11.068;2022-11-11T06:33:50;49.53;;;44.00;;
3811;SDS011;1921;49.368;11.068;2022-11-11T06:36:17;48.50;;;44.63;;
3811;SDS011;1921;49.368;11.068;2022-11-11T06:38:45;46.80;;;42.97;;
3811;SDS011;1921;49.368;11.068;2022-11-11T06:41:11;47.90;;;44.10;;
3811;SDS011;1921;49.368;11.068;2022-11-11T06:43:39;45.87;;;42.33;;
3811;SDS011;1921;49.368;11.068;2022-11-11T06:46:08;48.37;;;44.27;;
3811;SDS011;1921;49.368;11.068;2022-11-11T06:48:47;46.00;;;42.50;;
3811;SDS011;1921;49.368;11.068;2022-11-11T06:51:13;45.60;;;42.20;;
3811;SDS011;1921;49.368;11.068;2022-11-11T06:53:39;48.33;;;43.97;;
3811;SDS011;1921;49.368;11.068;2022-11-11T06:56:06;48.40;;;43.93;;
3811;SDS011;1921;49.368;11.068;2022-11-11T06:58:33;45.77;;;41.80;;
3811;SDS011;1921;49.368;11.068;2022-11-11T07:01:02;46.30;;;42.60;;
3811;SDS011;1921;49.368;11.068;2022-11-11T07:03:33;46.93;;;43.17;;
3811;SDS011;1921;49.368;11.068;2022-11-11T07:06:00;47.30;;;43.40;;
3811;SDS011;1921;49.368;11.068;2022-11-11T07:08:27;47.50;;;43.40;;
3811;SDS011;1921;49.368;11.068;2022-11-11T07:10:53;46.20;;;42.70;;
3811;SDS011;1921;49.368;11.068;2022-11-11T07:13:19;47.27;;;43.23;;
3811;SDS011;1921;49.368;11.068;2022-11-11T07:15:46;46.00;;;42.50;;
3811;SDS011;1921;49.368;11.068;2022-11-11T07:18:12;47.73;;;43.50;;
3811;SDS011;1921;49.368;11.068;2022-11-11T07:20:37;46.13;;;42.53;;
3811;SDS011;1921;49.368;11.068;2022-11-11T07:23:04;48.83;;;44.10;;
3811;SDS011;1921;49.368;11.068;2022-11-11T07:25:30;47.57;;;43.77;;
3811;SDS011;1921;49.368;11.068;2022-11-11T07:27:56;47.47;;;43.57;;
3811;SDS011;1921;49.368;11.068;2022-11-11T07:30:22;48.10;;;43.50;;
3811;SDS011;1921;49.368;11.068;2022-11-11T07:32:49;48.83;;;44.50;;
3811;SDS011;1921;49.368;11.068;2022-11-11T07:35:16;46.80;;;42.97;;
3811;SDS011;1921;49.368;11.068;2022-11-11T07:37:44;48.53;;;44.30;;
3811;SDS011;1921;49.368;11.068;2022-11-11T07:40:10;49.57;;;45.10;;
3811;SDS011;1921;49.368;11.068;2022-11-11T07:42:39;48.73;;;44.13;;
3811;SDS011;1921;49.368;11.068;2022-11-11T07:45:07;48.23;;;44.17;;
3811;SDS011;1921;49.368;11.068;2022-11-11T07:47:34;46.73;;;42.93;;
3811;SDS011;1921;49.368;11.068;2022-11-11T07:50:01;56.87;;;45.60;;
3811;SDS011;1921;49.368;11.068;2022-11-11T07:52:28;49.27;;;44.73;;
3811;SDS011;1921;49.368;11.068;2022-11-11T07:54:54;49.33;;;45.07;;
3811;SDS011;1921;49.368;11.068;2022-11-11T07:57:20;50.70;;;45.40;;
3811;SDS011;1921;49.368;11.068;2022-11-11T07:59:46;49.47;;;45.13;;
3811;SDS011;1921;49.368;11.068;2022-11-11T08:02:11;50.87;;;45.67;;
3811;SDS011;1921;49.368;11.068;2022-11-11T08:04:38;50.70;;;46.00;;
3811;SDS011;1921;49.368;11.068;2022-11-11T08:07:04;50.77;;;46.03;;
3811;SDS011;1921;49.368;11.068;2022-11-11T08:09:30;50.90;;;46.00;;
3811;SDS011;1921;49.368;11.068;2022-11-11T08:11:55;50.67;;;45.97;;
3811;SDS011;1921;49.368;11.068;2022-11-11T08:14:40;51.47;;;46.37;;
3811;SDS011;1921;49.368;11.068;2022-11-11T08:17:06;59.73;;;46.10;;
3811;SDS011;1921;49.368;11.068;2022-11-11T08:19:32;51.93;;;46.57;;
3811;SDS011;1921;49.368;11.068;2022-11-11T08:21:57;54.60;;;48.67;;
3811;SDS011;1921;49.368;11.068;2022-11-11T08:24:23;53.23;;;47.63;;
3811;SDS011;1921;49.368;11.068;2022-11-11T08:26:52;53.90;;;48.20;;
3811;SDS011;1921;49.368;11.068;2022-11-11T08:29:20;53.77;;;48.40;;
3811;SDS011;1921;49.368;11.068;2022-11-11T08:31:46;52.43;;;47.10;;
3811;SDS011;1921;49.368;11.068;2022-11-11T08:34:12;57.03;;;48.10;;
3811;SDS011;1921;49.368;11.068;2022-11-11T08:36:38;52.60;;;47.40;;
3811;SDS011;1921;49.368;11.068;2022-11-11T08:39:04;56.83;;;48.17;;
3811;SDS011;1921;49.368;11.068;2022-11-11T08:41:30;53.07;;;47.50;;
3811;SDS011;1921;49.368;11.068;2022-11-11T08:43:55;53.17;;;47.67;;
3811;SDS011;1921;49.368;11.068;2022-11-11T08:46:23;59.87;;;47.30;;
3811;SDS011;1921;49.368;11.068;2022-11-11T08:48:49;54.37;;;48.60;;
3811;SDS011;1921;49.368;11.068;2022-11-11T08:51:18;54.47;;;48.47;;
3811;SDS011;1921;49.368;11.068;2022-11-11T08:53:44;54.67;;;48.73;;
3811;SDS011;1921;49.368;11.068;2022-11-11T08:56:10;56.50;;;50.40;;
3811;SDS011;1921;49.368;11.068;2022-11-11T08:58:36;54.83;;;48.83;;
3811;SDS011;1921;49.368;11.068;2022-11-11T09:01:02;55.77;;;49.70;;
3811;SDS011;1921;49.368;11.068;2022-11-11T09:03:28;55.60;;;49.50;;
3811;SDS011;1921;49.368;11.068;2022-11-11T09:05:54;54.53;;;48.70;;
3811;SDS011;1921;49.368;11.068;2022-11-11T09:08:21;58.40;;;49.53;;
3811;SDS011;1921;49.368;11.068;2022-11-11T09:10:47;54.90;;;48.90;;
3811;SDS011;1921;49.368;11.068;2022-11-11T09:13:12;54.10;;;48.20;;
3811;SDS011;1921;49.368;11.068;2022-11-11T09:15:38;55.30;;;49.30;;
3811;SDS011;1921;49.368;11.068;2022-11-11T09:18:04;55.83;;;49.83;;
3811;SDS011;1921;49.368;11.068;2022-11-11T09:20:30;56.07;;;50.00;;
3811;SDS011;1921;49.368;11.068;2022-11-11T09:22:56;55.60;;;48.83;;
3811;SDS011;1921;49.368;11.068;2022-11-11T09:25:21;55.63;;;49.57;;
3811;SDS011;1921;49.368;11.068;2022-11-11T09:27:52;55.53;;;49.50;;
3811;SDS011;1921;49.368;11.068;2022-11-11T09:30:23;59.57;;;49.37;;
3811;SDS011;1921;49.368;11.068;2022-11-11T09:32:50;55.23;;;49.33;;
3811;SDS011;1921;49.368;11.068;2022-11-11T09:35:17;55.20;;;49.20;;
3811;SDS011;1921;49.368;11.068;2022-11-11T09:37:51;58.27;;;49.40;;
3811;SDS011;1921;49.368;11.068;2022-11-11T09:40:19;54.67;;;48.87;;
3811;SDS011;1921;49.368;11.068;2022-11-11T09:42:56;56.40;;;50.17;;
3811;SDS011;1921;49.368;11.068;2022-11-11T09:51:29;56.00;;;49.90;;
3811;SDS011;1921;49.368;11.068;2022-11-11T09:54:09;54.53;;;48.63;;
3811;SDS011;1921;49.368;11.068;2022-11-11T09:56:42;56.40;;;50.00;;
3811;SDS011;1921;49.368;11.068;2022-11-11T09:59:19;58.80;;;50.00;;
3811;SDS011;1921;49.368;11.068;2022-11-11T10:01:58;56.30;;;50.20;;
3811;SDS011;1921;49.368;11.068;2022-11-11T10:04:38;55.90;;;49.80;;
3811;SDS011;1921;49.368;11.068;2022-11-11T10:07:40;63.07;;;50.23;;
3811;SDS011;1921;49.368;11.068;2022-11-11T10:10:17;59.03;;;49.17;;
3811;SDS011;1921;49.368;11.068;2022-11-11T10:12:52;58.80;;;50.37;;
3811;SDS011;1921;49.368;11.068;2022-11-11T10:15:23;60.00;;;51.17;;
3811;SDS011;1921;49.368;11.068;2022-11-11T10:21:15;55.57;;;49.27;;
3811;SDS011;1921;49.368;11.068;2022-11-11T10:24:14;59.93;;;50.40;;
3811;SDS011;1921;49.368;11.068;2022-11-11T10:26:46;57.70;;;49.73;;
3811;SDS011;1921;49.368;11.068;2022-11-11T10:29:20;55.07;;;48.90;;
3811;SDS011;1921;49.368;11.068;2022-11-11T10:32:02;56.63;;;50.43;;
3811;SDS011;1921;49.368;11.068;2022-11-11T10:34:50;57.57;;;49.33;;
3811;SDS011;1921;49.368;11.068;2022-11-11T10:37:17;54.87;;;48.40;;
3811;SDS011;1921;49.368;11.068;2022-11-11T10:39:56;59.40;;;50.13;;
3811;SDS011;1921;49.368;11.068;2022-11-11T10:42:45;55.47;;;48.97;;
3811;SDS011;1921;49.368;11.068;2022-11-11T10:45:13;56.63;;;50.20;;
3811;SDS011;1921;49.368;11.068;2022-11-11T10:48:14;59.23;;;49.93;;
3811;SDS011;1921;49.368;11.068;2022-11-11T10:50:51;60.60;;;49.60;;
3811;SDS011;1921;49.368;11.068;2022-11-11T10:58:32;66.30;;;50.40;;
3811;SDS011;1921;49.368;11.068;2022-11-11T11:01:06;58.53;;;50.63;;
3811;SDS011;1921;49.368;11.068;2022-11-11T11:03:36;63.77;;;50.30;;
3811;SDS011;1921;49.368;11.068;2022-11-11T11:06:14;58.70;;;50.30;;
3811;SDS011;1921;49.368;11.068;2022-11-11T11:09:05;60.47;;;50.10;;
3811;SDS011;1921;49.368;11.068;2022-11-11T11:14:26;58.53;;;50.00;;
3811;SDS011;1921;49.368;11.068;2022-11-11T11:16:57;56.87;;;49.67;;
3811;SDS011;1921;49.368;11.068;2022-11-11T11:19:31;58.50;;;49.70;;
3811;SDS011;1921;49.368;11.068;2022-11-11T11:21:58;58.23;;;49.57;;
3811;SDS011;1921;49.368;11.068;2022-11-11T11:24:28;57.90;;;49.23;;
3811;SDS011;1921;49.368;11.068;2022-11-11T11:26:57;56.50;;;49.47;;
3811;SDS011;1921;49.368;11.068;2022-11-11T11:29:30;57.37;;;49.27;;
3811;SDS011;1921;49.368;11.068;2022-11-11T11:32:12;57.80;;;49.60;;
3811;SDS011;1921;49.368;11.068;2022-11-11T11:34:54;58.30;;;49.00;;
3811;SDS011;1921;49.368;11.068;2022-11-11T11:37:22;58.23;;;49.50;;
3811;SDS011;1921;49.368;11.068;2022-11-11T11:39:59;56.60;;;49.70;;
3811;SDS011;1921;49.368;11.068;2022-11-11T11:42:32;57.17;;;49.60;;
3811;SDS011;1921;49.368;11.068;2022-11-11T11:55:54;55.50;;;49.40;;
3811;SDS011;1921;49.368;11.068;2022-11-11T11:58:52;56.07;;;49.57;;
3811;SDS011;1921;49.368;11.068;2022-11-11T12:10:19;56.70;;;49.70;;
3811;SDS011;1921;49.368;11.068;2022-11-11T12:15:38;55.90;;;48.60;;
3811;SDS011;1921;49.368;11.068;2022-11-11T12:18:39;58.63;;;49.80;;
3811;SDS011;1921;49.368;11.068;2022-11-11T12:21:28;55.30;;;49.20;;
3811;SDS011;1921;49.368;11.068;2022-11-11T12:27:20;56.00;;;49.27;;
3811;SDS011;1921;49.368;11.068;2022-11-11T12:30:09;55.53;;;48.87;;
3811;SDS011;1921;49.368;11.068;2022-11-11T12:32:52;54.77;;;48.80;;
3811;SDS011;1921;49.368;11.068;2022-11-11T12:44:28;55.40;;;48.63;;
3811;SDS011;1921;49.368;11.068;2022-11-11T12:55:22;60.00;;;49.77;;
3811;SDS011;1921;49.368;11.068;2022-11-11T12:58:28;54.03;;;48.13;;
3811;SDS011;1921;49.368;11.068;2022-11-11T13:12:41;55.63;;;48.60;;
3811;SDS011;1921;49.368;11.068;2022-11-11T13:15:28;53.43;;;47.73;;
3811;SDS011;1921;49.368;11.068;2022-11-11T13:17:54;53.80;;;48.00;;
3811;SDS011;1921;49.368;11.068;2022-11-11T13:20:38;53.63;;;47.83;;
3811;SDS011;1921;49.368;11.068;2022-11-11T13:23:32;54.40;;;48.60;;
3811;SDS011;1921;49.368;11.068;2022-11-11T13:25:59;54.57;;;48.10;;
3811;SDS011;1921;49.368;11.068;2022-11-11T13:28:37;53.47;;;47.77;;
3811;SDS011;1921;49.368;11.068;2022-11-11T13:34:02;53.57;;;47.77;;
3811;SDS011;1921;49.368;11.068;2022-11-11T13:36:44;53.10;;;47.30;;
3811;SDS011;1921;49.368;11.068;2022-11-11T13:39:24;57.03;;;48.10;;
3811;SDS011;1921;49.368;11.068;2022-11-11T13:41:56;52.47;;;46.90;;
3811;SDS011;1921;49.368;11.068;2022-11-11T13:47:04;53.40;;;47.70;;
3811;SDS011;1921;49.368;11.068;2022-11-11T13:49:37;53.20;;;47.37;;
3811;SDS011;1921;49.368;11.068;2022-11-11T13:52:32;53.60;;;47.90;;
3811;SDS011;1921;49.368;11.068;2022-11-11T13:55:03;53.40;;;47.70;;
3811;SDS011;1921;49.368;11.068;2022-11-11T13:57:33;53.30;;;47.60;;
3811;SDS011;1921;49.368;11.068;2022-11-11T14:02:45;52.97;;;47.27;;
3811;SDS011;1921;49.368;11.068;2022-11-11T14:10:09;54.10;;;48.30;;
3811;SDS011;1921;49.368;11.068;2022-11-11T14:13:34;54.33;;;48.20;;
3811;SDS011;1921;49.368;11.068;2022-11-11T14:15:46;53.27;;;47.47;;
3811;SDS011;1921;49.368;11.068;2022-11-11T14:20:43;53.37;;;47.77;;
3811;SDS011;1921;49.368;11.068;2022-11-11T14:25:43;53.00;;;47.40;;
3811;SDS011;1921;49.368;11.068;2022-11-11T14:28:26;53.27;;;47.50;;
3811;SDS011;1921;49.368;11.068;2022-11-11T14:39:51;52.33;;;46.90;;
3811;SDS011;1921;49.368;11.068;2022-11-11T14:45:51;51.77;;;46.50;;
3811;SDS011;1921;49.368;11.068;2022-11-11T14:47:55;52.50;;;46.80;;
3811;SDS011;1921;49.368;11.068;2022-11-11T14:53:12;52.40;;;46.90;;
3811;SDS011;1921;49.368;11.068;2022-11-11T14:55:45;52.40;;;46.80;;
3811;SDS011;1921;49.368;11.068;2022-11-11T14:58:23;52.43;;;46.83;;
3811;SDS011;1921;49.368;11.068;2022-11-11T15:03:37;51.83;;;46.53;;
3811;SDS011;1921;49.368;11.068;2022-11-11T15:06:13;52.00;;;46.60;;
3811;SDS011;1921;49.368;11.068;2022-11-11T15:08:55;51.47;;;46.30;;
3811;SDS011;1921;49.368;11.068;2022-11-11T15:15:33;52.40;;;47.00;;
3811;SDS011;1921;49.368;11.068;2022-11-11T15:21:30;50.60;;;45.60;;
3811;SDS011;1921;49.368;11.068;2022-11-11T15:30:04;50.50;;;45.47;;
3811;SDS011;1921;49.368;11.068;2022-11-11T15:38:10;50.20;;;45.20;;
3811;SDS011;1921;49.368;11.068;2022-11-11T15:40:43;50.50;;;45.50;;
3811;SDS011;1921;49.368;11.068;2022-11-11T15:43:13;50.53;;;45.20;;
3811;SDS011;1921;49.368;11.068;2022-11-11T15:45:43;51.07;;;45.70;;
3811;SDS011;1921;49.368;11.068;2022-11-11T15:48:15;51.07;;;46.07;;
3811;SDS011;1921;49.368;11.068;2022-11-11T15:50:44;49.90;;;45.03;;
3811;SDS011;1921;49.368;11.068;2022-11-11T15:53:11;51.43;;;46.00;;
3811;SDS011;1921;49.368;11.068;2022-11-11T15:55:38;50.63;;;45.50;;
3811;SDS011;1921;49.368;11.068;2022-11-11T15:58:11;50.53;;;45.57;;
3811;SDS011;1921;49.368;11.068;2022-11-11T16:00:41;51.00;;;45.67;;
3811;SDS011;1921;49.368;11.068;2022-11-11T16:03:14;49.20;;;44.60;;
3811;SDS011;1921;49.368;11.068;2022-11-11T16:06:01;49.33;;;44.63;;
3811;SDS011;1921;49.368;11.068;2022-11-11T16:08:34;49.20;;;44.60;;
3811;SDS011;1921;49.368;11.068;2022-11-11T16:11:00;50.63;;;45.30;;
3811;SDS011;1921;49.368;11.068;2022-11-11T16:13:34;49.97;;;44.97;;
3811;SDS011;1921;49.368;11.068;2022-11-11T16:16:27;50.00;;;45.20;;
3811;SDS011;1921;49.368;11.068;2022-11-11T16:22:01;52.27;;;47.00;;
3811;SDS011;1921;49.368;11.068;2022-11-11T16:24:39;53.50;;;47.90;;
3811;SDS011;1921;49.368;11.068;2022-11-11T16:27:27;56.80;;;50.70;;
3811;SDS011;1921;49.368;11.068;2022-11-11T16:29:55;52.53;;;47.03;;
3811;SDS011;1921;49.368;11.068;2022-11-11T16:33:00;50.70;;;45.70;;
3811;SDS011;1921;49.368;11.068;2022-11-11T16:35:36;50.83;;;45.93;;
3811;SDS011;1921;49.368;11.068;2022-11-11T16:38:04;51.13;;;46.10;;
3811;SDS011;1921;49.368;11.068;2022-11-11T16:43:20;53.17;;;47.93;;
3811;SDS011;1921;49.368;11.068;2022-11-11T16:45:57;52.70;;;47.40;;
3811;SDS011;1921;49.368;11.068;2022-11-11T16:51:20;52.83;;;47.40;;
3811;SDS011;1921;49.368;11.068;2022-11-11T16:56:58;51.77;;;46.67;;
3811;SDS011;1921;49.368;11.068;2022-11-11T16:59:36;52.03;;;46.73;;
3811;SDS011;1921;49.368;11.068;2022-11-11T17:02:18;51.93;;;46.63;;
3811;SDS011;1921;49.368;11.068;2022-11-11T17:04:51;54.07;;;48.43;;
3811;SDS011;1921;49.368;11.068;2022-11-11T17:07:35;51.43;;;46.20;;
3811;SDS011;1921;49.368;11.068;2022-11-11T17:12:32;52.17;;;47.00;;
3811;SDS011;1921;49.368;11.068;2022-11-11T17:15:03;52.93;;;47.53;;
3811;SDS011;1921;49.368;11.068;2022-11-11T17:17:37;53.23;;;47.83;;
3811;SDS011;1921;49.368;11.068;2022-11-11T17:22:56;53.03;;;47.60;;
3811;SDS011;1921;49.368;11.068;2022-11-11T17:25:22;52.53;;;47.33;;
3811;SDS011;1921;49.368;11.068;2022-11-11T17:27:48;53.23;;;47.93;;
3811;SDS011;1921;49.368;11.068;2022-11-11T17:30:14;53.60;;;48.23;;
3811;SDS011;1921;49.368;11.068;2022-11-11T17:32:40;52.67;;;47.47;;
3811;SDS011;1921;49.368;11.068;2022-11-11T17:35:06;54.10;;;48.37;;
3811;SDS011;1921;49.368;11.068;2022-11-11T17:37:36;53.77;;;48.23;;
3811;SDS011;1921;49.368;11.068;2022-11-11T17:40:05;53.47;;;48.13;;
3811;SDS011;1921;49.368;11.068;2022-11-11T17:42:33;51.70;;;46.70;;
3811;SDS011;1921;49.368;11.068;2022-11-11T17:45:00;54.27;;;47.00;;